sensor_id;sensor_type;location;lat;lon;timestamp;P1;durP1;ratioP1;P2;durP2;ratioP2
15536;SDS011;7870;52.448;13.270;2023-02-28T00:01:12;7.22;;;4.18;;
15536;SDS011;7870;52.448;13.270;2023-02-28T00:03:39;7.47;;;4.13;;
15536;SDS011;7870;52.448;13.270;2023-02-28T00:06:06;8.25;;;3.90;;
15536;SDS011;7870;52.448;13.270;2023-02-28T00:08:33;9.65;;;4.03;;
15536;SDS011;7870;52.448;13.270;2023-02-28T00:11:00;7.68;;;4.38;;
15536;SDS011;7870;52.448;13.270;2023-02-28T00:13:29;8.70;;;4.85;;
15536;SDS011;7870;52.448;13.270;2023-02-28T00:16:02;7.38;;;4.15;;
15536;SDS011;7870;52.448;13.270;2023-02-28T00:18:30;7.63;;;4.30;;
15536;SDS011;7870;52.448;13.270;2023-02-28T00:20:57;10.88;;;4.85;;
15536;SDS011;7870;52.448;13.270;2023-02-28T00:23:24;7.10;;;4.13;;
15536;SDS011;7870;52.448;13.270;2023-02-28T00:25:51;7.50;;;4.20;;
15536;SDS011;7870;52.448;13.270;2023-02-28T00:28:18;10.48;;;4.00;;
15536;SDS011;7870;52.448;13.270;2023-02-28T00:30:45;5.88;;;3.88;;
15536;SDS011;7870;52.448;13.270;2023-02-28T00:33:12;6.47;;;4.03;;
15536;SDS011;7870;52.448;13.270;2023-02-28T00:35:38;7.53;;;3.88;;
15536;SDS011;7870;52.448;13.270;2023-02-28T00:38:08;6.85;;;4.05;;
15536;SDS011;7870;52.448;13.270;2023-02-28T00:40:34;6.93;;;4.28;;
15536;SDS011;7870;52.448;13.270;2023-02-28T00:43:01;6.68;;;4.10;;
15536;SDS011;7870;52.448;13.270;2023-02-28T00:45:27;8.77;;;5.15;;
15536;SDS011;7870;52.448;13.270;2023-02-28T00:47:56;9.20;;;4.25;;
15536;SDS011;7870;52.448;13.270;2023-02-28T00:50:22;7.13;;;4.35;;
15536;SDS011;7870;52.448;13.270;2023-02-28T00:52:49;8.45;;;4.45;;
15536;SDS011;7870;52.448;13.270;2023-02-28T00:55:16;7.70;;;4.07;;
15536;SDS011;7870;52.448;13.270;2023-02-28T00:57:42;8.20;;;5.18;;
15536;SDS011;7870;52.448;13.270;2023-02-28T01:00:09;6.80;;;5.05;;
15536;SDS011;7870;52.448;13.270;2023-02-28T01:02:37;7.28;;;4.32;;
15536;SDS011;7870;52.448;13.270;2023-02-28T01:05:03;7.90;;;4.43;;
15536;SDS011;7870;52.448;13.270;2023-02-28T01:07:30;8.48;;;4.85;;
15536;SDS011;7870;52.448;13.270;2023-02-28T01:09:57;8.18;;;4.55;;
15536;SDS011;7870;52.448;13.270;2023-02-28T01:12:24;9.88;;;4.65;;
15536;SDS011;7870;52.448;13.270;2023-02-28T01:14:50;8.48;;;5.07;;
15536;SDS011;7870;52.448;13.270;2023-02-28T01:17:20;7.78;;;4.78;;
15536;SDS011;7870;52.448;13.270;2023-02-28T01:19:47;6.57;;;4.15;;
15536;SDS011;7870;52.448;13.270;2023-02-28T01:22:13;6.50;;;4.30;;
15536;SDS011;7870;52.448;13.270;2023-02-28T01:24:41;6.85;;;4.45;;
15536;SDS011;7870;52.448;13.270;2023-02-28T01:27:11;7.77;;;4.37;;
15536;SDS011;7870;52.448;13.270;2023-02-28T01:29:37;7.70;;;5.45;;
15536;SDS011;7870;52.448;13.270;2023-02-28T01:32:04;7.72;;;4.90;;
15536;SDS011;7870;52.448;13.270;2023-02-28T01:34:31;7.70;;;4.80;;
15536;SDS011;7870;52.448;13.270;2023-02-28T01:36:57;8.52;;;5.05;;
15536;SDS011;7870;52.448;13.270;2023-02-28T01:39:25;8.48;;;5.45;;
15536;SDS011;7870;52.448;13.270;2023-02-28T01:41:52;7.43;;;4.65;;
15536;SDS011;7870;52.448;13.270;2023-02-28T01:47:23;8.25;;;4.93;;
15536;SDS011;7870;52.448;13.270;2023-02-28T01:49:52;6.25;;;4.57;;
15536;SDS011;7870;52.448;13.270;2023-02-28T01:52:18;7.45;;;4.72;;
15536;SDS011;7870;52.448;13.270;2023-02-28T01:54:47;5.95;;;4.38;;
15536;SDS011;7870;52.448;13.270;2023-02-28T01:57:18;7.82;;;4.80;;
15536;SDS011;7870;52.448;13.270;2023-02-28T01:59:49;8.77;;;5.17;;
15536;SDS011;7870;52.448;13.270;2023-02-28T02:02:19;7.15;;;4.40;;
15536;SDS011;7870;52.448;13.270;2023-02-28T02:04:57;7.15;;;4.93;;
15536;SDS011;7870;52.448;13.270;2023-02-28T02:07:29;6.78;;;4.35;;
15536;SDS011;7870;52.448;13.270;2023-02-28T02:10:04;7.45;;;5.15;;
15536;SDS011;7870;52.448;13.270;2023-02-28T02:12:41;9.65;;;4.95;;
15536;SDS011;7870;52.448;13.270;2023-02-28T02:15:30;6.35;;;4.38;;
15536;SDS011;7870;52.448;13.270;2023-02-28T02:18:05;8.52;;;5.32;;
15536;SDS011;7870;52.448;13.270;2023-02-28T02:20:49;8.88;;;5.63;;
15536;SDS011;7870;52.448;13.270;2023-02-28T02:23:57;6.07;;;4.43;;
15536;SDS011;7870;52.448;13.270;2023-02-28T02:32:20;8.40;;;5.47;;
15536;SDS011;7870;52.448;13.270;2023-02-28T02:35:35;8.07;;;4.90;;
15536;SDS011;7870;52.448;13.270;2023-02-28T02:38:20;6.15;;;4.60;;
15536;SDS011;7870;52.448;13.270;2023-02-28T02:41:04;7.97;;;5.35;;
15536;SDS011;7870;52.448;13.270;2023-02-28T02:46:38;10.35;;;5.28;;
15536;SDS011;7870;52.448;13.270;2023-02-28T02:49:08;6.25;;;4.57;;
15536;SDS011;7870;52.448;13.270;2023-02-28T02:51:39;8.20;;;5.00;;
15536;SDS011;7870;52.448;13.270;2023-02-28T02:56:39;12.13;;;5.65;;
15536;SDS011;7870;52.448;13.270;2023-02-28T02:59:09;8.73;;;5.75;;
15536;SDS011;7870;52.448;13.270;2023-02-28T03:01:39;8.02;;;5.13;;
15536;SDS011;7870;52.448;13.270;2023-02-28T03:04:16;7.60;;;5.32;;
15536;SDS011;7870;52.448;13.270;2023-02-28T03:06:45;8.73;;;6.53;;
15536;SDS011;7870;52.448;13.270;2023-02-28T03:09:12;9.30;;;5.60;;
15536;SDS011;7870;52.448;13.270;2023-02-28T03:11:39;9.10;;;5.50;;
15536;SDS011;7870;52.448;13.270;2023-02-28T03:30:49;10.07;;;5.57;;
15536;SDS011;7870;52.448;13.270;2023-02-28T03:33:21;7.88;;;4.63;;
15536;SDS011;7870;52.448;13.270;2023-02-28T03:35:54;10.77;;;4.95;;
15536;SDS011;7870;52.448;13.270;2023-02-28T03:38:31;9.45;;;4.82;;
15536;SDS011;7870;52.448;13.270;2023-02-28T03:41:03;9.02;;;5.20;;
15536;SDS011;7870;52.448;13.270;2023-02-28T03:43:34;7.55;;;4.63;;
15536;SDS011;7870;52.448;13.270;2023-02-28T03:46:02;8.02;;;4.78;;
15536;SDS011;7870;52.448;13.270;2023-02-28T03:48:38;7.18;;;4.35;;
15536;SDS011;7870;52.448;13.270;2023-02-28T03:51:09;8.10;;;5.50;;
15536;SDS011;7870;52.448;13.270;2023-02-28T03:59:17;8.57;;;4.78;;
15536;SDS011;7870;52.448;13.270;2023-02-28T04:01:48;7.00;;;4.72;;
15536;SDS011;7870;52.448;13.270;2023-02-28T04:04:15;10.77;;;6.07;;
15536;SDS011;7870;52.448;13.270;2023-02-28T04:06:42;7.95;;;5.15;;
15536;SDS011;7870;52.448;13.270;2023-02-28T04:09:10;8.48;;;6.03;;
15536;SDS011;7870;52.448;13.270;2023-02-28T04:11:44;9.20;;;5.47;;
15536;SDS011;7870;52.448;13.270;2023-02-28T04:14:12;9.07;;;5.13;;
15536;SDS011;7870;52.448;13.270;2023-02-28T04:16:41;8.13;;;5.47;;
15536;SDS011;7870;52.448;13.270;2023-02-28T04:19:08;9.80;;;5.28;;
15536;SDS011;7870;52.448;13.270;2023-02-28T04:21:38;7.90;;;5.60;;
15536;SDS011;7870;52.448;13.270;2023-02-28T04:24:07;8.35;;;5.25;;
15536;SDS011;7870;52.448;13.270;2023-02-28T04:26:35;7.45;;;5.30;;
15536;SDS011;7870;52.448;13.270;2023-02-28T04:29:04;7.57;;;5.15;;
15536;SDS011;7870;52.448;13.270;2023-02-28T04:31:31;8.55;;;5.53;;
15536;SDS011;7870;52.448;13.270;2023-02-28T04:33:58;8.57;;;5.00;;
15536;SDS011;7870;52.448;13.270;2023-02-28T04:36:25;9.13;;;5.47;;
15536;SDS011;7870;52.448;13.270;2023-02-28T04:38:52;10.77;;;5.20;;
15536;SDS011;7870;52.448;13.270;2023-02-28T04:41:18;8.95;;;5.53;;
15536;SDS011;7870;52.448;13.270;2023-02-28T04:43:45;9.45;;;5.75;;
15536;SDS011;7870;52.448;13.270;2023-02-28T04:46:11;9.13;;;5.15;;
15536;SDS011;7870;52.448;13.270;2023-02-28T04:48:39;9.18;;;5.82;;
15536;SDS011;7870;52.448;13.270;2023-02-28T04:51:07;8.30;;;5.30;;
15536;SDS011;7870;52.448;13.270;2023-02-28T04:53:35;10.77;;;6.05;;
15536;SDS011;7870;52.448;13.270;2023-02-28T04:56:03;10.05;;;5.78;;
15536;SDS011;7870;52.448;13.270;2023-02-28T04:58:30;8.48;;;5.43;;
15536;SDS011;7870;52.448;13.270;2023-02-28T05:01:14;11.77;;;6.82;;
15536;SDS011;7870;52.448;13.270;2023-02-28T05:03:41;8.40;;;5.18;;
15536;SDS011;7870;52.448;13.270;2023-02-28T05:06:09;9.48;;;6.03;;
15536;SDS011;7870;52.448;13.270;2023-02-28T05:08:36;10.45;;;5.60;;
15536;SDS011;7870;52.448;13.270;2023-02-28T05:11:03;9.68;;;5.80;;
15536;SDS011;7870;52.448;13.270;2023-02-28T05:13:30;10.80;;;5.53;;
15536;SDS011;7870;52.448;13.270;2023-02-28T05:15:57;7.85;;;5.55;;
15536;SDS011;7870;52.448;13.270;2023-02-28T05:18:23;7.65;;;5.65;;
15536;SDS011;7870;52.448;13.270;2023-02-28T05:20:50;8.20;;;5.60;;
15536;SDS011;7870;52.448;13.270;2023-02-28T05:23:16;9.60;;;6.32;;
15536;SDS011;7870;52.448;13.270;2023-02-28T05:25:43;9.45;;;5.93;;
15536;SDS011;7870;52.448;13.270;2023-02-28T05:28:10;10.93;;;6.82;;
15536;SDS011;7870;52.448;13.270;2023-02-28T05:30:37;9.68;;;5.95;;
15536;SDS011;7870;52.448;13.270;2023-02-28T05:33:03;8.02;;;5.50;;
15536;SDS011;7870;52.448;13.270;2023-02-28T05:35:30;13.35;;;5.65;;
15536;SDS011;7870;52.448;13.270;2023-02-28T05:37:56;8.50;;;5.88;;
15536;SDS011;7870;52.448;13.270;2023-02-28T05:40:23;9.00;;;6.15;;
15536;SDS011;7870;52.448;13.270;2023-02-28T05:42:50;10.45;;;6.20;;
15536;SDS011;7870;52.448;13.270;2023-02-28T05:45:16;12.25;;;6.75;;
15536;SDS011;7870;52.448;13.270;2023-02-28T05:47:43;8.90;;;5.75;;
15536;SDS011;7870;52.448;13.270;2023-02-28T05:50:09;9.68;;;6.43;;
15536;SDS011;7870;52.448;13.270;2023-02-28T05:52:36;9.30;;;6.15;;
15536;SDS011;7870;52.448;13.270;2023-02-28T05:55:03;9.70;;;6.43;;
15536;SDS011;7870;52.448;13.270;2023-02-28T05:57:30;11.35;;;6.93;;
15536;SDS011;7870;52.448;13.270;2023-02-28T05:59:56;11.38;;;6.22;;
15536;SDS011;7870;52.448;13.270;2023-02-28T06:02:23;11.48;;;6.85;;
15536;SDS011;7870;52.448;13.270;2023-02-28T06:04:50;12.73;;;7.50;;
15536;SDS011;7870;52.448;13.270;2023-02-28T06:07:16;11.77;;;6.82;;
15536;SDS011;7870;52.448;13.270;2023-02-28T06:09:43;9.35;;;6.50;;
15536;SDS011;7870;52.448;13.270;2023-02-28T06:12:10;11.70;;;7.43;;
15536;SDS011;7870;52.448;13.270;2023-02-28T06:14:36;11.27;;;6.53;;
15536;SDS011;7870;52.448;13.270;2023-02-28T06:17:03;12.02;;;6.50;;
15536;SDS011;7870;52.448;13.270;2023-02-28T06:19:31;9.98;;;6.75;;
15536;SDS011;7870;52.448;13.270;2023-02-28T06:21:57;10.38;;;6.55;;
15536;SDS011;7870;52.448;13.270;2023-02-28T06:24:26;9.23;;;7.00;;
15536;SDS011;7870;52.448;13.270;2023-02-28T06:26:54;11.98;;;6.43;;
15536;SDS011;7870;52.448;13.270;2023-02-28T06:29:20;12.13;;;7.57;;
15536;SDS011;7870;52.448;13.270;2023-02-28T06:31:47;12.15;;;7.60;;
15536;SDS011;7870;52.448;13.270;2023-02-28T06:34:16;11.23;;;7.25;;
15536;SDS011;7870;52.448;13.270;2023-02-28T06:36:43;11.15;;;7.28;;
15536;SDS011;7870;52.448;13.270;2023-02-28T06:39:09;14.70;;;7.22;;
15536;SDS011;7870;52.448;13.270;2023-02-28T06:41:36;9.30;;;6.63;;
15536;SDS011;7870;52.448;13.270;2023-02-28T06:44:19;12.52;;;8.65;;
15536;SDS011;7870;52.448;13.270;2023-02-28T06:46:46;10.45;;;7.43;;
15536;SDS011;7870;52.448;13.270;2023-02-28T06:49:12;10.80;;;7.32;;
15536;SDS011;7870;52.448;13.270;2023-02-28T06:51:40;13.73;;;6.97;;
15536;SDS011;7870;52.448;13.270;2023-02-28T06:54:07;13.43;;;8.02;;
15536;SDS011;7870;52.448;13.270;2023-02-28T06:56:37;10.95;;;7.82;;
15536;SDS011;7870;52.448;13.270;2023-02-28T06:59:04;9.32;;;6.45;;
15536;SDS011;7870;52.448;13.270;2023-02-28T07:01:30;11.35;;;7.63;;
15536;SDS011;7870;52.448;13.270;2023-02-28T07:03:59;8.32;;;6.50;;
15536;SDS011;7870;52.448;13.270;2023-02-28T07:06:26;11.00;;;7.30;;
15536;SDS011;7870;52.448;13.270;2023-02-28T07:08:53;11.35;;;7.07;;
15536;SDS011;7870;52.448;13.270;2023-02-28T07:11:20;10.30;;;6.85;;
15536;SDS011;7870;52.448;13.270;2023-02-28T07:13:52;13.85;;;7.22;;
15536;SDS011;7870;52.448;13.270;2023-02-28T07:16:20;9.30;;;6.82;;
15536;SDS011;7870;52.448;13.270;2023-02-28T07:18:46;13.45;;;6.97;;
15536;SDS011;7870;52.448;13.270;2023-02-28T07:21:13;12.07;;;6.85;;
15536;SDS011;7870;52.448;13.270;2023-02-28T07:23:40;9.50;;;6.68;;
15536;SDS011;7870;52.448;13.270;2023-02-28T07:26:11;11.43;;;7.55;;
15536;SDS011;7870;52.448;13.270;2023-02-28T07:28:41;11.07;;;7.13;;
15536;SDS011;7870;52.448;13.270;2023-02-28T07:31:09;9.93;;;7.15;;
15536;SDS011;7870;52.448;13.270;2023-02-28T07:33:36;12.65;;;7.13;;
15536;SDS011;7870;52.448;13.270;2023-02-28T07:36:03;11.15;;;7.60;;
15536;SDS011;7870;52.448;13.270;2023-02-28T07:38:35;12.30;;;7.53;;
15536;SDS011;7870;52.448;13.270;2023-02-28T07:41:02;10.77;;;7.15;;
15536;SDS011;7870;52.448;13.270;2023-02-28T07:43:31;11.70;;;7.68;;
15536;SDS011;7870;52.448;13.270;2023-02-28T07:46:01;11.43;;;6.32;;
15536;SDS011;7870;52.448;13.270;2023-02-28T07:48:29;13.85;;;7.50;;
15536;SDS011;7870;52.448;13.270;2023-02-28T07:50:56;12.43;;;6.63;;
15536;SDS011;7870;52.448;13.270;2023-02-28T07:53:23;10.65;;;6.32;;
15536;SDS011;7870;52.448;13.270;2023-02-28T07:55:50;9.75;;;6.53;;
15536;SDS011;7870;52.448;13.270;2023-02-28T07:58:16;11.07;;;5.93;;
15536;SDS011;7870;52.448;13.270;2023-02-28T08:00:43;8.77;;;5.95;;
15536;SDS011;7870;52.448;13.270;2023-02-28T08:03:12;7.38;;;4.93;;
15536;SDS011;7870;52.448;13.270;2023-02-28T08:05:39;7.65;;;5.68;;
15536;SDS011;7870;52.448;13.270;2023-02-28T08:08:07;10.00;;;4.60;;
15536;SDS011;7870;52.448;13.270;2023-02-28T08:10:34;6.80;;;4.55;;
15536;SDS011;7870;52.448;13.270;2023-02-28T08:13:00;6.95;;;4.18;;
15536;SDS011;7870;52.448;13.270;2023-02-28T08:15:27;4.53;;;2.40;;
15536;SDS011;7870;52.448;13.270;2023-02-28T08:17:53;4.45;;;3.03;;
15536;SDS011;7870;52.448;13.270;2023-02-28T08:20:22;6.07;;;3.38;;
15536;SDS011;7870;52.448;13.270;2023-02-28T08:22:49;5.85;;;3.63;;
15536;SDS011;7870;52.448;13.270;2023-02-28T08:25:16;4.78;;;3.45;;
15536;SDS011;7870;52.448;13.270;2023-02-28T08:27:42;5.68;;;2.88;;
15536;SDS011;7870;52.448;13.270;2023-02-28T08:30:10;5.25;;;2.80;;
15536;SDS011;7870;52.448;13.270;2023-02-28T08:32:38;4.68;;;2.50;;
15536;SDS011;7870;52.448;13.270;2023-02-28T08:35:04;5.55;;;2.67;;
15536;SDS011;7870;52.448;13.270;2023-02-28T08:37:31;4.50;;;2.40;;
15536;SDS011;7870;52.448;13.270;2023-02-28T08:39:58;3.45;;;2.22;;
15536;SDS011;7870;52.448;13.270;2023-02-28T08:42:24;3.97;;;2.50;;
15536;SDS011;7870;52.448;13.270;2023-02-28T08:44:51;4.90;;;2.90;;
15536;SDS011;7870;52.448;13.270;2023-02-28T08:47:18;4.82;;;2.65;;
15536;SDS011;7870;52.448;13.270;2023-02-28T08:49:44;4.10;;;2.60;;
15536;SDS011;7870;52.448;13.270;2023-02-28T08:52:11;3.55;;;2.10;;
15536;SDS011;7870;52.448;13.270;2023-02-28T08:54:38;3.97;;;2.15;;
15536;SDS011;7870;52.448;13.270;2023-02-28T08:57:04;3.50;;;2.13;;
15536;SDS011;7870;52.448;13.270;2023-02-28T08:59:31;4.03;;;2.28;;
15536;SDS011;7870;52.448;13.270;2023-02-28T09:01:58;5.35;;;2.10;;
15536;SDS011;7870;52.448;13.270;2023-02-28T09:04:24;4.70;;;1.90;;
15536;SDS011;7870;52.448;13.270;2023-02-28T09:06:51;4.53;;;2.40;;
15536;SDS011;7870;52.448;13.270;2023-02-28T09:09:18;5.32;;;2.03;;
15536;SDS011;7870;52.448;13.270;2023-02-28T09:11:44;4.60;;;2.17;;
15536;SDS011;7870;52.448;13.270;2023-02-28T09:14:11;3.65;;;2.30;;
15536;SDS011;7870;52.448;13.270;2023-02-28T09:16:37;7.05;;;2.40;;
15536;SDS011;7870;52.448;13.270;2023-02-28T09:19:04;4.00;;;2.20;;
15536;SDS011;7870;52.448;13.270;2023-02-28T09:21:30;4.53;;;2.67;;
15536;SDS011;7870;52.448;13.270;2023-02-28T09:23:57;4.20;;;2.50;;
15536;SDS011;7870;52.448;13.270;2023-02-28T09:26:25;4.88;;;2.40;;
15536;SDS011;7870;52.448;13.270;2023-02-28T09:29:04;3.45;;;2.42;;
15536;SDS011;7870;52.448;13.270;2023-02-28T09:31:31;4.20;;;2.28;;
15536;SDS011;7870;52.448;13.270;2023-02-28T09:33:57;4.88;;;2.40;;
15536;SDS011;7870;52.448;13.270;2023-02-28T09:36:26;5.35;;;2.90;;
15536;SDS011;7870;52.448;13.270;2023-02-28T09:39:09;3.13;;;2.03;;
15536;SDS011;7870;52.448;13.270;2023-02-28T09:41:37;4.95;;;2.50;;
15536;SDS011;7870;52.448;13.270;2023-02-28T09:44:07;5.15;;;2.55;;
15536;SDS011;7870;52.448;13.270;2023-02-28T09:46:43;3.53;;;2.40;;
15536;SDS011;7870;52.448;13.270;2023-02-28T09:49:25;4.82;;;2.72;;
15536;SDS011;7870;52.448;13.270;2023-02-28T09:51:57;4.20;;;2.75;;
15536;SDS011;7870;52.448;13.270;2023-02-28T09:56:59;4.13;;;2.30;;
15536;SDS011;7870;52.448;13.270;2023-02-28T10:02:17;5.32;;;2.88;;
15536;SDS011;7870;52.448;13.270;2023-02-28T10:05:08;5.35;;;2.20;;
15536;SDS011;7870;52.448;13.270;2023-02-28T10:07:54;6.28;;;2.90;;
15536;SDS011;7870;52.448;13.270;2023-02-28T10:10:43;5.03;;;2.50;;
15536;SDS011;7870;52.448;13.270;2023-02-28T10:13:13;6.47;;;2.50;;
15536;SDS011;7870;52.448;13.270;2023-02-28T10:16:02;5.80;;;2.30;;
15536;SDS011;7870;52.448;13.270;2023-02-28T10:18:45;4.07;;;2.70;;
15536;SDS011;7870;52.448;13.270;2023-02-28T10:21:16;5.47;;;2.70;;
15536;SDS011;7870;52.448;13.270;2023-02-28T10:23:48;3.63;;;2.47;;
15536;SDS011;7870;52.448;13.270;2023-02-28T10:26:17;4.50;;;2.15;;
15536;SDS011;7870;52.448;13.270;2023-02-28T10:28:44;4.55;;;2.17;;
15536;SDS011;7870;52.448;13.270;2023-02-28T10:31:11;5.97;;;2.50;;
15536;SDS011;7870;52.448;13.270;2023-02-28T10:33:42;5.00;;;2.35;;
15536;SDS011;7870;52.448;13.270;2023-02-28T10:36:10;5.75;;;2.10;;
15536;SDS011;7870;52.448;13.270;2023-02-28T10:38:41;4.00;;;2.10;;
15536;SDS011;7870;52.448;13.270;2023-02-28T10:41:08;4.93;;;2.47;;
15536;SDS011;7870;52.448;13.270;2023-02-28T10:43:37;4.43;;;2.22;;
15536;SDS011;7870;52.448;13.270;2023-02-28T10:51:37;4.22;;;2.20;;
15536;SDS011;7870;52.448;13.270;2023-02-28T10:54:05;4.68;;;2.20;;
15536;SDS011;7870;52.448;13.270;2023-02-28T10:56:32;3.67;;;2.00;;
15536;SDS011;7870;52.448;13.270;2023-02-28T10:59:05;3.63;;;2.05;;
15536;SDS011;7870;52.448;13.270;2023-02-28T11:01:52;5.47;;;2.53;;
15536;SDS011;7870;52.448;13.270;2023-02-28T11:06:58;5.78;;;2.70;;
15536;SDS011;7870;52.448;13.270;2023-02-28T11:09:27;4.50;;;2.65;;
15536;SDS011;7870;52.448;13.270;2023-02-28T11:11:56;5.60;;;2.80;;
15536;SDS011;7870;52.448;13.270;2023-02-28T11:14:27;4.53;;;2.58;;
15536;SDS011;7870;52.448;13.270;2023-02-28T11:16:55;5.72;;;2.60;;
15536;SDS011;7870;52.448;13.270;2023-02-28T11:19:26;7.10;;;2.42;;
15536;SDS011;7870;52.448;13.270;2023-02-28T11:26:53;4.80;;;2.85;;
15536;SDS011;7870;52.448;13.270;2023-02-28T11:29:23;4.10;;;2.40;;
15536;SDS011;7870;52.448;13.270;2023-02-28T11:34:45;5.95;;;2.30;;
15536;SDS011;7870;52.448;13.270;2023-02-28T11:37:13;4.18;;;2.63;;
15536;SDS011;7870;52.448;13.270;2023-02-28T11:39:42;4.47;;;2.65;;
15536;SDS011;7870;52.448;13.270;2023-02-28T11:45:03;4.30;;;2.60;;
15536;SDS011;7870;52.448;13.270;2023-02-28T11:47:58;5.53;;;2.60;;
15536;SDS011;7870;52.448;13.270;2023-02-28T11:53:34;4.72;;;2.83;;
15536;SDS011;7870;52.448;13.270;2023-02-28T11:56:03;5.30;;;2.65;;
15536;SDS011;7870;52.448;13.270;2023-02-28T12:01:16;3.97;;;2.70;;
15536;SDS011;7870;52.448;13.270;2023-02-28T12:03:53;7.13;;;3.22;;
15536;SDS011;7870;52.448;13.270;2023-02-28T12:06:33;5.13;;;2.63;;
15536;SDS011;7870;52.448;13.270;2023-02-28T12:09:14;4.15;;;2.60;;
15536;SDS011;7870;52.448;13.270;2023-02-28T12:14:23;5.25;;;3.10;;
15536;SDS011;7870;52.448;13.270;2023-02-28T12:16:59;5.32;;;3.05;;
15536;SDS011;7870;52.448;13.270;2023-02-28T12:19:45;5.53;;;3.05;;
15536;SDS011;7870;52.448;13.270;2023-02-28T12:22:21;5.30;;;3.30;;
15536;SDS011;7870;52.448;13.270;2023-02-28T12:25:19;5.85;;;3.80;;
15536;SDS011;7870;52.448;13.270;2023-02-28T12:27:49;7.07;;;3.88;;
15536;SDS011;7870;52.448;13.270;2023-02-28T12:30:21;8.00;;;3.13;;
15536;SDS011;7870;52.448;13.270;2023-02-28T12:32:55;6.47;;;3.42;;
15536;SDS011;7870;52.448;13.270;2023-02-28T12:35:25;5.70;;;3.40;;
15536;SDS011;7870;52.448;13.270;2023-02-28T12:38:11;6.20;;;3.63;;
15536;SDS011;7870;52.448;13.270;2023-02-28T12:40:48;6.13;;;2.92;;
15536;SDS011;7870;52.448;13.270;2023-02-28T12:43:20;6.97;;;3.63;;
15536;SDS011;7870;52.448;13.270;2023-02-28T12:45:52;6.22;;;3.50;;
15536;SDS011;7870;52.448;13.270;2023-02-28T12:50:55;5.93;;;3.00;;
15536;SDS011;7870;52.448;13.270;2023-02-28T12:53:25;4.95;;;3.28;;
15536;SDS011;7870;52.448;13.270;2023-02-28T12:58:46;5.35;;;3.40;;
15536;SDS011;7870;52.448;13.270;2023-02-28T13:04:19;6.18;;;3.10;;
15536;SDS011;7870;52.448;13.270;2023-02-28T13:07:08;5.72;;;3.10;;
15536;SDS011;7870;52.448;13.270;2023-02-28T13:09:50;5.00;;;3.35;;
15536;SDS011;7870;52.448;13.270;2023-02-28T13:12:18;4.47;;;2.97;;
15536;SDS011;7870;52.448;13.270;2023-02-28T13:14:46;5.10;;;3.60;;
15536;SDS011;7870;52.448;13.270;2023-02-28T13:17:16;5.72;;;3.38;;
15536;SDS011;7870;52.448;13.270;2023-02-28T13:22:19;5.88;;;3.40;;
15536;SDS011;7870;52.448;13.270;2023-02-28T13:24:52;8.90;;;3.63;;
15536;SDS011;7870;52.448;13.270;2023-02-28T13:29:51;4.82;;;3.17;;
15536;SDS011;7870;52.448;13.270;2023-02-28T13:32:19;4.65;;;3.40;;
15536;SDS011;7870;52.448;13.270;2023-02-28T13:42:23;5.78;;;3.55;;
15536;SDS011;7870;52.448;13.270;2023-02-28T13:45:19;5.40;;;3.55;;
15536;SDS011;7870;52.448;13.270;2023-02-28T13:47:52;5.72;;;3.63;;
15536;SDS011;7870;52.448;13.270;2023-02-28T13:53:19;5.82;;;3.33;;
15536;SDS011;7870;52.448;13.270;2023-02-28T14:04:27;4.97;;;3.60;;
15536;SDS011;7870;52.448;13.270;2023-02-28T14:07:05;6.03;;;3.10;;
15536;SDS011;7870;52.448;13.270;2023-02-28T14:09:33;6.10;;;3.22;;
15536;SDS011;7870;52.448;13.270;2023-02-28T14:15:25;6.03;;;3.30;;
15536;SDS011;7870;52.448;13.270;2023-02-28T14:18:03;5.80;;;3.47;;
15536;SDS011;7870;52.448;13.270;2023-02-28T14:20:32;4.40;;;3.10;;
15536;SDS011;7870;52.448;13.270;2023-02-28T14:23:06;5.13;;;3.60;;
15536;SDS011;7870;52.448;13.270;2023-02-28T14:26:02;5.00;;;3.25;;
15536;SDS011;7870;52.448;13.270;2023-02-28T14:28:43;5.40;;;3.17;;
15536;SDS011;7870;52.448;13.270;2023-02-28T14:31:13;5.82;;;3.78;;
15536;SDS011;7870;52.448;13.270;2023-02-28T14:36:39;5.93;;;3.45;;
15536;SDS011;7870;52.448;13.270;2023-02-28T14:39:10;7.18;;;3.50;;
15536;SDS011;7870;52.448;13.270;2023-02-28T14:46:44;6.93;;;3.75;;
15536;SDS011;7870;52.448;13.270;2023-02-28T14:49:13;5.22;;;3.60;;
15536;SDS011;7870;52.448;13.270;2023-02-28T14:51:43;6.50;;;3.67;;
15536;SDS011;7870;52.448;13.270;2023-02-28T14:54:13;6.10;;;3.65;;
15536;SDS011;7870;52.448;13.270;2023-02-28T14:56:41;6.43;;;4.10;;
15536;SDS011;7870;52.448;13.270;2023-02-28T14:59:25;5.55;;;3.60;;
15536;SDS011;7870;52.448;13.270;2023-02-28T15:01:52;6.95;;;4.25;;
15536;SDS011;7870;52.448;13.270;2023-02-28T15:04:26;7.75;;;3.90;;
15536;SDS011;7870;52.448;13.270;2023-02-28T15:09:41;5.03;;;3.63;;
15536;SDS011;7870;52.448;13.270;2023-02-28T15:12:09;5.25;;;3.80;;
15536;SDS011;7870;52.448;13.270;2023-02-28T15:14:42;6.97;;;3.67;;
15536;SDS011;7870;52.448;13.270;2023-02-28T15:17:11;7.75;;;4.18;;
15536;SDS011;7870;52.448;13.270;2023-02-28T15:19:44;6.80;;;3.78;;
15536;SDS011;7870;52.448;13.270;2023-02-28T15:22:17;5.50;;;3.85;;
15536;SDS011;7870;52.448;13.270;2023-02-28T15:29:48;8.50;;;3.33;;
15536;SDS011;7870;52.448;13.270;2023-02-28T15:32:36;8.77;;;3.67;;
15536;SDS011;7870;52.448;13.270;2023-02-28T15:37:55;9.18;;;3.95;;
15536;SDS011;7870;52.448;13.270;2023-02-28T15:40:43;6.47;;;3.90;;
15536;SDS011;7870;52.448;13.270;2023-02-28T15:43:18;6.55;;;3.80;;
15536;SDS011;7870;52.448;13.270;2023-02-28T15:45:52;5.43;;;3.80;;
15536;SDS011;7870;52.448;13.270;2023-02-28T15:48:33;6.95;;;4.15;;
15536;SDS011;7870;52.448;13.270;2023-02-28T15:53:48;7.00;;;3.58;;
15536;SDS011;7870;52.448;13.270;2023-02-28T15:56:26;8.02;;;4.38;;
15536;SDS011;7870;52.448;13.270;2023-02-28T15:59:06;5.30;;;3.72;;
15536;SDS011;7870;52.448;13.270;2023-02-28T16:01:36;6.78;;;4.13;;
15536;SDS011;7870;52.448;13.270;2023-02-28T16:04:05;8.02;;;4.22;;
15536;SDS011;7870;52.448;13.270;2023-02-28T16:09:12;7.07;;;4.18;;
15536;SDS011;7870;52.448;13.270;2023-02-28T16:11:43;10.10;;;5.57;;
15536;SDS011;7870;52.448;13.270;2023-02-28T16:14:13;6.70;;;4.22;;
15536;SDS011;7870;52.448;13.270;2023-02-28T16:16:43;5.65;;;3.50;;
15536;SDS011;7870;52.448;13.270;2023-02-28T16:19:14;7.53;;;3.95;;
15536;SDS011;7870;52.448;13.270;2023-02-28T16:21:41;7.07;;;4.03;;
15536;SDS011;7870;52.448;13.270;2023-02-28T16:24:07;5.85;;;3.83;;
15536;SDS011;7870;52.448;13.270;2023-02-28T16:26:34;6.30;;;3.97;;
15536;SDS011;7870;52.448;13.270;2023-02-28T16:29:01;6.35;;;3.78;;
15536;SDS011;7870;52.448;13.270;2023-02-28T16:31:28;5.82;;;3.85;;
15536;SDS011;7870;52.448;13.270;2023-02-28T16:33:55;6.53;;;4.38;;
15536;SDS011;7870;52.448;13.270;2023-02-28T16:36:24;5.53;;;4.00;;
15536;SDS011;7870;52.448;13.270;2023-02-28T16:38:54;7.88;;;4.45;;
15536;SDS011;7870;52.448;13.270;2023-02-28T16:41:22;8.10;;;4.40;;
15536;SDS011;7870;52.448;13.270;2023-02-28T16:43:51;6.65;;;4.05;;
15536;SDS011;7870;52.448;13.270;2023-02-28T16:46:19;5.90;;;4.28;;
15536;SDS011;7870;52.448;13.270;2023-02-28T16:48:46;8.52;;;4.13;;
15536;SDS011;7870;52.448;13.270;2023-02-28T16:51:17;7.60;;;4.10;;
15536;SDS011;7870;52.448;13.270;2023-02-28T16:53:44;6.88;;;4.07;;
15536;SDS011;7870;52.448;13.270;2023-02-28T16:56:20;5.65;;;4.30;;
15536;SDS011;7870;52.448;13.270;2023-02-28T16:58:48;10.13;;;4.30;;
15536;SDS011;7870;52.448;13.270;2023-02-28T17:01:16;6.65;;;4.13;;
15536;SDS011;7870;52.448;13.270;2023-02-28T17:03:48;6.07;;;4.15;;
15536;SDS011;7870;52.448;13.270;2023-02-28T17:06:26;8.10;;;4.50;;
15536;SDS011;7870;52.448;13.270;2023-02-28T17:08:54;9.82;;;4.22;;
15536;SDS011;7870;52.448;13.270;2023-02-28T17:11:22;7.00;;;4.28;;
15536;SDS011;7870;52.448;13.270;2023-02-28T17:13:48;8.40;;;4.13;;